sensor_id;sensor_type;location;lat;lon;timestamp;temperature;humidity
1135;DHT22;556;53.550;10.048;2022-08-11T00:01:10;23.20;40.90
1135;DHT22;556;53.550;10.048;2022-08-11T00:03:43;23.10;40.90
1135;DHT22;556;53.550;10.048;2022-08-11T00:06:12;23.10;40.90
1135;DHT22;556;53.550;10.048;2022-08-11T00:08:42;23.00;40.90
1135;DHT22;556;53.550;10.048;2022-08-11T00:11:11;23.00;41.10
1135;DHT22;556;53.550;10.048;2022-08-11T00:13:43;23.00;41.10
1135;DHT22;556;53.550;10.048;2022-08-11T00:16:13;22.90;40.70
1135;DHT22;556;53.550;10.048;2022-08-11T00:18:43;22.90;41.20
1135;DHT22;556;53.550;10.048;2022-08-11T00:21:11;22.90;41.40
1135;DHT22;556;53.550;10.048;2022-08-11T00:23:43;22.90;41.40
1135;DHT22;556;53.550;10.048;2022-08-11T00:26:12;22.90;41.60
1135;DHT22;556;53.550;10.048;2022-08-11T00:28:41;22.80;42.10
1135;DHT22;556;53.550;10.048;2022-08-11T00:31:10;22.80;41.60
1135;DHT22;556;53.550;10.048;2022-08-11T00:33:46;22.80;41.80
1135;DHT22;556;53.550;10.048;2022-08-11T00:36:16;22.70;41.80
1135;DHT22;556;53.550;10.048;2022-08-11T00:38:48;22.60;41.80
1135;DHT22;556;53.550;10.048;2022-08-11T00:41:28;22.50;42.00
1135;DHT22;556;53.550;10.048;2022-08-11T00:44:10;22.50;42.20
1135;DHT22;556;53.550;10.048;2022-08-11T00:46:49;22.40;41.70
1135;DHT22;556;53.550;10.048;2022-08-11T00:49:29;22.40;42.20
1135;DHT22;556;53.550;10.048;2022-08-11T00:52:21;22.30;42.30
1135;DHT22;556;53.550;10.048;2022-08-11T00:58:31;22.20;42.50
1135;DHT22;556;53.550;10.048;2022-08-11T01:01:09;22.20;42.50
1135;DHT22;556;53.550;10.048;2022-08-11T01:04:09;22.10;43.00
1135;DHT22;556;53.550;10.048;2022-08-11T01:06:52;22.10;42.70
1135;DHT22;556;53.550;10.048;2022-08-11T01:09:32;22.00;42.60
1135;DHT22;556;53.550;10.048;2022-08-11T01:12:18;22.00;42.70
1135;DHT22;556;53.550;10.048;2022-08-11T01:24:59;21.90;43.00
1135;DHT22;556;53.550;10.048;2022-08-11T01:28:16;21.90;43.10
1135;DHT22;556;53.550;10.048;2022-08-11T01:34:21;21.70;43.00
1135;DHT22;556;53.550;10.048;2022-08-11T01:40:10;21.70;43.20
1135;DHT22;556;53.550;10.048;2022-08-11T01:43:09;21.70;43.30
1135;DHT22;556;53.550;10.048;2022-08-11T01:46:00;21.60;43.30
1135;DHT22;556;53.550;10.048;2022-08-11T01:48:40;21.60;43.30
1135;DHT22;556;53.550;10.048;2022-08-11T01:51:16;21.50;43.40
1135;DHT22;556;53.550;10.048;2022-08-11T01:53:52;21.50;43.10
1135;DHT22;556;53.550;10.048;2022-08-11T01:56:33;21.50;43.60
1135;DHT22;556;53.550;10.048;2022-08-11T01:59:12;21.50;43.70
1135;DHT22;556;53.550;10.048;2022-08-11T02:01:51;21.50;43.80
1135;DHT22;556;53.550;10.048;2022-08-11T02:04:32;21.40;43.20
1135;DHT22;556;53.550;10.048;2022-08-11T02:07:03;21.40;43.80
1135;DHT22;556;53.550;10.048;2022-08-11T02:12:54;21.40;44.00
1135;DHT22;556;53.550;10.048;2022-08-11T02:15:27;21.40;44.00
1135;DHT22;556;53.550;10.048;2022-08-11T02:18:05;21.40;44.00
1135;DHT22;556;53.550;10.048;2022-08-11T02:20:44;21.30;44.10
1135;DHT22;556;53.550;10.048;2022-08-11T02:23:34;21.30;44.10
1135;DHT22;556;53.550;10.048;2022-08-11T02:26:19;21.20;44.10
1135;DHT22;556;53.550;10.048;2022-08-11T02:29:04;21.20;44.30
1135;DHT22;556;53.550;10.048;2022-08-11T02:31:49;21.10;44.40
1135;DHT22;556;53.550;10.048;2022-08-11T02:34:43;21.10;44.40
1135;DHT22;556;53.550;10.048;2022-08-11T02:37:17;21.00;44.00
1135;DHT22;556;53.550;10.048;2022-08-11T02:39:59;21.10;44.60
1135;DHT22;556;53.550;10.048;2022-08-11T02:42:37;21.00;44.10
1135;DHT22;556;53.550;10.048;2022-08-11T02:45:15;21.10;44.70
1135;DHT22;556;53.550;10.048;2022-08-11T02:47:50;21.00;44.70
1135;DHT22;556;53.550;10.048;2022-08-11T02:50:38;21.00;44.80
1135;DHT22;556;53.550;10.048;2022-08-11T02:53:12;21.00;44.80
1135;DHT22;556;53.550;10.048;2022-08-11T02:55:49;21.00;44.90
1135;DHT22;556;53.550;10.048;2022-08-11T02:58:32;21.00;44.90
1135;DHT22;556;53.550;10.048;2022-08-11T03:01:07;21.90;45.70
1135;DHT22;556;53.550;10.048;2022-08-11T03:03:48;20.90;45.00
1135;DHT22;556;53.550;10.048;2022-08-11T03:06:28;20.90;45.10
1135;DHT22;556;53.550;10.048;2022-08-11T03:09:03;20.90;45.20
1135;DHT22;556;53.550;10.048;2022-08-11T03:11:49;20.80;45.20
1135;DHT22;556;53.550;10.048;2022-08-11T03:14:41;20.80;45.20
1135;DHT22;556;53.550;10.048;2022-08-11T03:17:32;20.80;45.30
1135;DHT22;556;53.550;10.048;2022-08-11T03:20:14;20.80;45.30
1135;DHT22;556;53.550;10.048;2022-08-11T03:22:52;20.70;45.40
1135;DHT22;556;53.550;10.048;2022-08-11T03:25:26;20.70;45.40
1135;DHT22;556;53.550;10.048;2022-08-11T03:28:03;20.70;45.40
1135;DHT22;556;53.550;10.048;2022-08-11T03:30:42;20.70;45.50
1135;DHT22;556;53.550;10.048;2022-08-11T03:33:20;20.70;45.60
1135;DHT22;556;53.550;10.048;2022-08-11T03:36:13;20.70;45.60
1135;DHT22;556;53.550;10.048;2022-08-11T03:38:55;20.70;45.60
1135;DHT22;556;53.550;10.048;2022-08-11T03:41:33;20.60;45.60
1135;DHT22;556;53.550;10.048;2022-08-11T03:44:28;20.60;45.70
1135;DHT22;556;53.550;10.048;2022-08-11T03:47:09;20.60;45.80
1135;DHT22;556;53.550;10.048;2022-08-11T03:49:52;20.60;45.80
1135;DHT22;556;53.550;10.048;2022-08-11T03:52:32;20.60;46.00
1135;DHT22;556;53.550;10.048;2022-08-11T03:55:12;20.50;45.50
1135;DHT22;556;53.550;10.048;2022-08-11T03:58:22;20.50;46.00
1135;DHT22;556;53.550;10.048;2022-08-11T04:04:15;20.50;46.20
1135;DHT22;556;53.550;10.048;2022-08-11T04:07:17;20.40;46.10
1135;DHT22;556;53.550;10.048;2022-08-11T04:10:10;20.50;46.20
1135;DHT22;556;53.550;10.048;2022-08-11T04:13:12;20.50;46.20
1135;DHT22;556;53.550;10.048;2022-08-11T04:19:18;20.60;46.20
1135;DHT22;556;53.550;10.048;2022-08-11T04:22:15;20.60;46.30
1135;DHT22;556;53.550;10.048;2022-08-11T04:25:07;20.50;46.20
1135;DHT22;556;53.550;10.048;2022-08-11T04:31:01;20.60;46.30
1135;DHT22;556;53.550;10.048;2022-08-11T04:34:01;20.60;46.20
1135;DHT22;556;53.550;10.048;2022-08-11T04:36:46;20.70;46.30
1135;DHT22;556;53.550;10.048;2022-08-11T04:40:06;20.80;46.30
1135;DHT22;556;53.550;10.048;2022-08-11T04:46:14;20.90;46.90
1135;DHT22;556;53.550;10.048;2022-08-11T04:52:33;21.00;46.90
1135;DHT22;556;53.550;10.048;2022-08-11T05:05:44;21.30;46.90
1135;DHT22;556;53.550;10.048;2022-08-11T05:08:59;21.40;46.20
1135;DHT22;556;53.550;10.048;2022-08-11T05:11:42;21.40;46.30
1135;DHT22;556;53.550;10.048;2022-08-11T05:14:32;21.60;45.80
1135;DHT22;556;53.550;10.048;2022-08-11T05:17:23;21.60;46.30
1135;DHT22;556;53.550;10.048;2022-08-11T05:20:11;21.70;45.80
1135;DHT22;556;53.550;10.048;2022-08-11T05:23:03;21.70;45.80
1135;DHT22;556;53.550;10.048;2022-08-11T05:25:53;21.80;46.30
1135;DHT22;556;53.550;10.048;2022-08-11T05:28:41;21.80;46.20
1135;DHT22;556;53.550;10.048;2022-08-11T05:31:34;21.90;46.20
1135;DHT22;556;53.550;10.048;2022-08-11T05:34:22;21.90;45.70
1135;DHT22;556;53.550;10.048;2022-08-11T05:37:11;22.00;46.20
1135;DHT22;556;53.550;10.048;2022-08-11T05:39:43;22.10;46.20
1135;DHT22;556;53.550;10.048;2022-08-11T05:42:35;22.30;45.70
1135;DHT22;556;53.550;10.048;2022-08-11T05:45:22;22.30;46.20
1135;DHT22;556;53.550;10.048;2022-08-11T05:48:08;22.30;46.10
1135;DHT22;556;53.550;10.048;2022-08-11T05:50:55;22.40;46.10
1135;DHT22;556;53.550;10.048;2022-08-11T05:53:46;22.50;45.70
1135;DHT22;556;53.550;10.048;2022-08-11T05:56:33;22.50;46.10
1135;DHT22;556;53.550;10.048;2022-08-11T05:59:03;22.60;46.00
1135;DHT22;556;53.550;10.048;2022-08-11T06:01:32;22.70;46.00
1135;DHT22;556;53.550;10.048;2022-08-11T06:04:05;22.80;46.00
1135;DHT22;556;53.550;10.048;2022-08-11T06:06:51;22.90;45.60
1135;DHT22;556;53.550;10.048;2022-08-11T06:09:24;22.90;46.10
1135;DHT22;556;53.550;10.048;2022-08-11T06:11:55;23.00;45.60
1135;DHT22;556;53.550;10.048;2022-08-11T06:14:25;23.10;46.00
1135;DHT22;556;53.550;10.048;2022-08-11T06:16:55;23.30;45.40
1135;DHT22;556;53.550;10.048;2022-08-11T06:19:32;23.30;45.40
1135;DHT22;556;53.550;10.048;2022-08-11T06:22:02;23.30;45.90
1135;DHT22;556;53.550;10.048;2022-08-11T06:24:30;23.40;45.90
1135;DHT22;556;53.550;10.048;2022-08-11T06:26:59;23.50;45.40
1135;DHT22;556;53.550;10.048;2022-08-11T06:29:29;23.50;45.80
1135;DHT22;556;53.550;10.048;2022-08-11T06:32:00;23.60;45.80
1135;DHT22;556;53.550;10.048;2022-08-11T06:34:34;23.60;45.70
1135;DHT22;556;53.550;10.048;2022-08-11T06:37:17;23.80;45.70
1135;DHT22;556;53.550;10.048;2022-08-11T06:39:51;23.90;45.10
1135;DHT22;556;53.550;10.048;2022-08-11T06:42:35;23.90;45.00
1135;DHT22;556;53.550;10.048;2022-08-11T06:45:15;24.00;44.90
1135;DHT22;556;53.550;10.048;2022-08-11T06:47:45;24.10;44.80
1135;DHT22;556;53.550;10.048;2022-08-11T06:50:18;24.20;44.80
1135;DHT22;556;53.550;10.048;2022-08-11T06:53:04;24.20;44.60
1135;DHT22;556;53.550;10.048;2022-08-11T06:55:34;24.30;45.00
1135;DHT22;556;53.550;10.048;2022-08-11T06:58:20;24.40;45.00
1135;DHT22;556;53.550;10.048;2022-08-11T07:01:11;24.60;44.30
1135;DHT22;556;53.550;10.048;2022-08-11T07:03:42;24.60;44.20
1135;DHT22;556;53.550;10.048;2022-08-11T07:06:22;24.70;44.60
1135;DHT22;556;53.550;10.048;2022-08-11T07:12:40;24.90;44.30
1135;DHT22;556;53.550;10.048;2022-08-11T07:15:30;24.90;44.20
1135;DHT22;556;53.550;10.048;2022-08-11T07:18:11;25.10;43.50
1135;DHT22;556;53.550;10.048;2022-08-11T07:21:09;25.30;43.20
1135;DHT22;556;53.550;10.048;2022-08-11T07:23:53;25.30;43.80
1135;DHT22;556;53.550;10.048;2022-08-11T07:26:40;25.40;43.60
1135;DHT22;556;53.550;10.048;2022-08-11T07:29:28;25.50;42.80
1135;DHT22;556;53.550;10.048;2022-08-11T07:31:58;25.60;43.30
1135;DHT22;556;53.550;10.048;2022-08-11T07:34:34;25.60;42.70
1135;DHT22;556;53.550;10.048;2022-08-11T07:37:08;25.70;43.00
1135;DHT22;556;53.550;10.048;2022-08-11T07:39:38;25.80;42.90
1135;DHT22;556;53.550;10.048;2022-08-11T07:42:07;25.90;42.80
1135;DHT22;556;53.550;10.048;2022-08-11T07:44:36;26.00;42.10
1135;DHT22;556;53.550;10.048;2022-08-11T07:47:24;26.20;42.50
1135;DHT22;556;53.550;10.048;2022-08-11T07:50:11;26.30;41.90
1135;DHT22;556;53.550;10.048;2022-08-11T07:52:57;26.30;42.20
1135;DHT22;556;53.550;10.048;2022-08-11T07:57:57;26.50;41.50
1135;DHT22;556;53.550;10.048;2022-08-11T08:00:44;26.60;41.80
1135;DHT22;556;53.550;10.048;2022-08-11T08:03:29;26.60;41.30
1135;DHT22;556;53.550;10.048;2022-08-11T08:06:16;26.70;41.20
1135;DHT22;556;53.550;10.048;2022-08-11T08:09:02;26.70;41.60
1135;DHT22;556;53.550;10.048;2022-08-11T08:11:47;26.70;41.50
1135;DHT22;556;53.550;10.048;2022-08-11T08:14:33;26.90;41.50
1135;DHT22;556;53.550;10.048;2022-08-11T08:17:19;27.00;41.30
1135;DHT22;556;53.550;10.048;2022-08-11T08:20:05;27.20;40.70
1135;DHT22;556;53.550;10.048;2022-08-11T08:22:36;27.20;41.20
1135;DHT22;556;53.550;10.048;2022-08-11T08:25:05;27.30;41.00
1135;DHT22;556;53.550;10.048;2022-08-11T08:27:34;27.40;40.40
1135;DHT22;556;53.550;10.048;2022-08-11T08:30:02;27.50;40.70
1135;DHT22;556;53.550;10.048;2022-08-11T08:32:47;27.60;40.00
1135;DHT22;556;53.550;10.048;2022-08-11T08:35:15;27.70;40.40
1135;DHT22;556;53.550;10.048;2022-08-11T08:37:44;27.80;40.20
1135;DHT22;556;53.550;10.048;2022-08-11T08:40:14;27.90;40.10
1135;DHT22;556;53.550;10.048;2022-08-11T08:42:46;27.90;40.00
1135;DHT22;556;53.550;10.048;2022-08-11T08:45:16;28.00;40.00
1135;DHT22;556;53.550;10.048;2022-08-11T08:47:47;28.00;39.90
1135;DHT22;556;53.550;10.048;2022-08-11T08:50:20;28.10;39.70
1135;DHT22;556;53.550;10.048;2022-08-11T08:52:53;28.40;38.90
1135;DHT22;556;53.550;10.048;2022-08-11T08:55:26;28.40;39.30
1135;DHT22;556;53.550;10.048;2022-08-11T08:57:55;28.50;39.10
1135;DHT22;556;53.550;10.048;2022-08-11T09:00:28;28.60;38.40
1135;DHT22;556;53.550;10.048;2022-08-11T09:03:06;28.60;38.20
1135;DHT22;556;53.550;10.048;2022-08-11T09:05:34;28.80;38.70
1135;DHT22;556;53.550;10.048;2022-08-11T09:08:03;28.80;38.50
1135;DHT22;556;53.550;10.048;2022-08-11T09:10:31;28.90;38.40
1135;DHT22;556;53.550;10.048;2022-08-11T09:13:00;28.90;38.20
1135;DHT22;556;53.550;10.048;2022-08-11T09:15:29;29.00;38.10
1135;DHT22;556;53.550;10.048;2022-08-11T09:17:59;29.00;37.90
1135;DHT22;556;53.550;10.048;2022-08-11T09:20:33;29.00;37.80
1135;DHT22;556;53.550;10.048;2022-08-11T09:23:04;29.10;38.30
1135;DHT22;556;53.550;10.048;2022-08-11T09:25:52;29.20;37.00
1135;DHT22;556;53.550;10.048;2022-08-11T09:28:40;29.20;36.80
1135;DHT22;556;53.550;10.048;2022-08-11T09:31:08;29.30;37.20
1135;DHT22;556;53.550;10.048;2022-08-11T09:33:38;29.30;37.00
1135;DHT22;556;53.550;10.048;2022-08-11T09:36:07;29.40;36.90
1135;DHT22;556;53.550;10.048;2022-08-11T09:38:54;29.40;36.20
1135;DHT22;556;53.550;10.048;2022-08-11T09:41:39;29.50;36.10
1135;DHT22;556;53.550;10.048;2022-08-11T09:44:08;29.60;36.50
1135;DHT22;556;53.550;10.048;2022-08-11T09:46:54;29.70;36.40
1135;DHT22;556;53.550;10.048;2022-08-11T09:49:25;30.40;36.70
1135;DHT22;556;53.550;10.048;2022-08-11T09:54:22;29.70;35.30
1135;DHT22;556;53.550;10.048;2022-08-11T09:56:51;29.80;35.70
1135;DHT22;556;53.550;10.048;2022-08-11T09:59:41;29.80;35.60
1135;DHT22;556;53.550;10.048;2022-08-11T10:02:09;29.90;35.40
1135;DHT22;556;53.550;10.048;2022-08-11T10:04:40;30.00;35.30
1135;DHT22;556;53.550;10.048;2022-08-11T10:07:13;30.00;35.10
1135;DHT22;556;53.550;10.048;2022-08-11T10:09:45;30.60;35.20
1135;DHT22;556;53.550;10.048;2022-08-11T10:12:20;30.10;34.60
1135;DHT22;556;53.550;10.048;2022-08-11T10:15:02;30.20;34.50
1135;DHT22;556;53.550;10.048;2022-08-11T10:17:53;30.10;34.50
1135;DHT22;556;53.550;10.048;2022-08-11T10:20:41;30.10;34.50
1135;DHT22;556;53.550;10.048;2022-08-11T10:23:11;30.20;33.90
1135;DHT22;556;53.550;10.048;2022-08-11T10:25:58;30.20;34.70
1135;DHT22;556;53.550;10.048;2022-08-11T10:28:43;30.40;34.00
1135;DHT22;556;53.550;10.048;2022-08-11T10:31:11;30.40;33.30
1135;DHT22;556;53.550;10.048;2022-08-11T10:33:57;30.50;33.80
1135;DHT22;556;53.550;10.048;2022-08-11T10:36:29;30.50;33.70
1135;DHT22;556;53.550;10.048;2022-08-11T10:38:59;30.50;33.60
1135;DHT22;556;53.550;10.048;2022-08-11T10:41:28;30.50;33.40
1135;DHT22;556;53.550;10.048;2022-08-11T10:44:13;30.50;33.40
1135;DHT22;556;53.550;10.048;2022-08-11T10:46:40;30.60;33.30
1135;DHT22;556;53.550;10.048;2022-08-11T10:49:25;30.60;33.00
1135;DHT22;556;53.550;10.048;2022-08-11T10:51:55;30.60;32.90
1135;DHT22;556;53.550;10.048;2022-08-11T10:54:41;30.70;32.80
1135;DHT22;556;53.550;10.048;2022-08-11T10:57:29;30.70;32.70
1135;DHT22;556;53.550;10.048;2022-08-11T11:00:15;30.80;32.10
1135;DHT22;556;53.550;10.048;2022-08-11T11:02:44;30.80;32.40
1135;DHT22;556;53.550;10.048;2022-08-11T11:05:14;30.90;31.70
1135;DHT22;556;53.550;10.048;2022-08-11T11:07:49;30.90;32.20
1135;DHT22;556;53.550;10.048;2022-08-11T11:10:18;30.90;32.00
1135;DHT22;556;53.550;10.048;2022-08-11T11:12:53;30.90;31.40
1135;DHT22;556;53.550;10.048;2022-08-11T11:15:42;30.90;31.20
1135;DHT22;556;53.550;10.048;2022-08-11T11:18:31;31.20;31.30
1135;DHT22;556;53.550;10.048;2022-08-11T11:21:04;31.20;31.10
1135;DHT22;556;53.550;10.048;2022-08-11T11:23:37;31.20;31.00
1135;DHT22;556;53.550;10.048;2022-08-11T11:26:21;31.30;31.50
1135;DHT22;556;53.550;10.048;2022-08-11T11:32:15;31.60;30.60
1135;DHT22;556;53.550;10.048;2022-08-11T11:35:20;31.60;30.90
1135;DHT22;556;53.550;10.048;2022-08-11T11:37:52;31.60;30.10
1135;DHT22;556;53.550;10.048;2022-08-11T11:40:21;31.60;30.10
1135;DHT22;556;53.550;10.048;2022-08-11T11:42:51;31.60;30.10
1135;DHT22;556;53.550;10.048;2022-08-11T11:45:22;31.70;31.10
1135;DHT22;556;53.550;10.048;2022-08-11T11:47:56;31.70;30.00
1135;DHT22;556;53.550;10.048;2022-08-11T11:50:25;31.70;30.30
1135;DHT22;556;53.550;10.048;2022-08-11T11:55:22;31.70;29.80
1135;DHT22;556;53.550;10.048;2022-08-11T11:57:51;32.50;30.50
1135;DHT22;556;53.550;10.048;2022-08-11T12:00:39;31.90;29.70
1135;DHT22;556;53.550;10.048;2022-08-11T12:03:27;31.90;30.00
1135;DHT22;556;53.550;10.048;2022-08-11T12:05:55;31.90;29.90
1135;DHT22;556;53.550;10.048;2022-08-11T12:08:24;31.90;29.80
1135;DHT22;556;53.550;10.048;2022-08-11T12:10:53;31.80;29.60
1135;DHT22;556;53.550;10.048;2022-08-11T12:13:44;32.00;29.70
1135;DHT22;556;53.550;10.048;2022-08-11T12:16:13;32.00;29.20
1135;DHT22;556;53.550;10.048;2022-08-11T12:18:43;32.10;29.60
1135;DHT22;556;53.550;10.048;2022-08-11T12:21:13;32.20;29.20
1135;DHT22;556;53.550;10.048;2022-08-11T12:23:43;32.20;29.10
1135;DHT22;556;53.550;10.048;2022-08-11T12:26:29;32.30;29.10
1135;DHT22;556;53.550;10.048;2022-08-11T12:29:16;32.60;29.60
1135;DHT22;556;53.550;10.048;2022-08-11T12:31:46;32.30;29.10
1135;DHT22;556;53.550;10.048;2022-08-11T12:34:15;32.30;29.40
1135;DHT22;556;53.550;10.048;2022-08-11T12:36:48;32.40;28.90
1135;DHT22;556;53.550;10.048;2022-08-11T12:39:19;32.40;28.80
1135;DHT22;556;53.550;10.048;2022-08-11T12:42:08;32.50;28.70
1135;DHT22;556;53.550;10.048;2022-08-11T12:44:56;32.60;29.10
1135;DHT22;556;53.550;10.048;2022-08-11T12:47:48;32.70;28.50
1135;DHT22;556;53.550;10.048;2022-08-11T12:50:34;32.90;28.80
1135;DHT22;556;53.550;10.048;2022-08-11T12:53:22;33.60;28.20
1135;DHT22;556;53.550;10.048;2022-08-11T12:55:52;34.00;28.50
1135;DHT22;556;53.550;10.048;2022-08-11T12:58:40;34.90;28.40
1135;DHT22;556;53.550;10.048;2022-08-11T13:03:55;37.30;27.20
1135;DHT22;556;53.550;10.048;2022-08-11T13:06:40;38.50;26.60
1135;DHT22;556;53.550;10.048;2022-08-11T13:09:10;39.60;26.60
1135;DHT22;556;53.550;10.048;2022-08-11T13:11:38;40.50;25.90
1135;DHT22;556;53.550;10.048;2022-08-11T13:14:25;41.60;24.60
1135;DHT22;556;53.550;10.048;2022-08-11T13:16:52;42.70;24.30
1135;DHT22;556;53.550;10.048;2022-08-11T13:19:41;42.80;24.50
1135;DHT22;556;53.550;10.048;2022-08-11T13:22:10;43.60;24.10
1135;DHT22;556;53.550;10.048;2022-08-11T13:24:38;44.40;23.80
1135;DHT22;556;53.550;10.048;2022-08-11T13:27:06;44.90;23.40
1135;DHT22;556;53.550;10.048;2022-08-11T13:29:37;45.30;23.00
1135;DHT22;556;53.550;10.048;2022-08-11T13:32:07;45.50;22.80
1135;DHT22;556;53.550;10.048;2022-08-11T13:34:36;45.90;22.60
1135;DHT22;556;53.550;10.048;2022-08-11T13:37:09;46.40;22.20
1135;DHT22;556;53.550;10.048;2022-08-11T13:39:42;47.00;21.90
1135;DHT22;556;53.550;10.048;2022-08-11T13:42:13;47.20;21.60
1135;DHT22;556;53.550;10.048;2022-08-11T13:44:41;47.30;21.00
1135;DHT22;556;53.550;10.048;2022-08-11T13:47:12;47.80;21.70
1135;DHT22;556;53.550;10.048;2022-08-11T13:49:40;48.20;20.60
1135;DHT22;556;53.550;10.048;2022-08-11T13:52:15;48.50;20.90
1135;DHT22;556;53.550;10.048;2022-08-11T13:54:45;48.40;20.60
1135;DHT22;556;53.550;10.048;2022-08-11T13:57:14;48.40;20.60
1135;DHT22;556;53.550;10.048;2022-08-11T13:59:44;48.80;19.90
1135;DHT22;556;53.550;10.048;2022-08-11T14:02:15;49.30;19.80
1135;DHT22;556;53.550;10.048;2022-08-11T14:04:47;49.30;19.90
1135;DHT22;556;53.550;10.048;2022-08-11T14:09:48;49.30;19.30
1135;DHT22;556;53.550;10.048;2022-08-11T14:12:21;49.30;19.00
1135;DHT22;556;53.550;10.048;2022-08-11T14:15:13;49.30;19.50
1135;DHT22;556;53.550;10.048;2022-08-11T14:17:47;49.40;19.40
1135;DHT22;556;53.550;10.048;2022-08-11T14:20:18;49.60;18.80
1135;DHT22;556;53.550;10.048;2022-08-11T14:22:48;49.60;19.20
1135;DHT22;556;53.550;10.048;2022-08-11T14:25:16;49.60;19.10
1135;DHT22;556;53.550;10.048;2022-08-11T14:27:43;49.70;18.70
1135;DHT22;556;53.550;10.048;2022-08-11T14:30:14;49.70;18.40
1135;DHT22;556;53.550;10.048;2022-08-11T14:32:56;49.70;18.90
1135;DHT22;556;53.550;10.048;2022-08-11T14:35:26;49.60;18.40
1135;DHT22;556;53.550;10.048;2022-08-11T14:37:57;49.40;18.80
1135;DHT22;556;53.550;10.048;2022-08-11T14:40:25;48.40;18.80
1135;DHT22;556;53.550;10.048;2022-08-11T14:43:10;48.20;18.80
1135;DHT22;556;53.550;10.048;2022-08-11T14:45:55;48.10;19.20
1135;DHT22;556;53.550;10.048;2022-08-11T14:48:41;48.10;19.20
1135;DHT22;556;53.550;10.048;2022-08-11T14:51:08;48.40;19.10
1135;DHT22;556;53.550;10.048;2022-08-11T14:53:37;48.60;19.00
1135;DHT22;556;53.550;10.048;2022-08-11T14:56:05;48.90;18.40
1135;DHT22;556;53.550;10.048;2022-08-11T14:58:50;49.40;18.30
1135;DHT22;556;53.550;10.048;2022-08-11T15:01:18;49.40;18.60
1135;DHT22;556;53.550;10.048;2022-08-11T15:04:03;49.40;18.10
1135;DHT22;556;53.550;10.048;2022-08-11T15:06:30;49.40;18.20
1135;DHT22;556;53.550;10.048;2022-08-11T15:08:59;49.40;18.00
1135;DHT22;556;53.550;10.048;2022-08-11T15:11:29;49.40;18.40
1135;DHT22;556;53.550;10.048;2022-08-11T15:14:20;49.40;18.30
1135;DHT22;556;53.550;10.048;2022-08-11T15:17:02;49.30;18.40
1135;DHT22;556;53.550;10.048;2022-08-11T15:19:36;49.20;18.40
1135;DHT22;556;53.550;10.048;2022-08-11T15:22:24;49.10;18.40
1135;DHT22;556;53.550;10.048;2022-08-11T15:25:11;49.00;18.50
1135;DHT22;556;53.550;10.048;2022-08-11T15:27:38;48.90;18.50
1135;DHT22;556;53.550;10.048;2022-08-11T15:30:24;49.00;18.50
1135;DHT22;556;53.550;10.048;2022-08-11T15:33:10;49.10;18.50
1135;DHT22;556;53.550;10.048;2022-08-11T15:36:01;49.20;18.50
1135;DHT22;556;53.550;10.048;2022-08-11T15:38:50;49.00;18.00
1135;DHT22;556;53.550;10.048;2022-08-11T15:41:24;49.00;18.10
1135;DHT22;556;53.550;10.048;2022-08-11T15:44:12;49.00;18.50
1135;DHT22;556;53.550;10.048;2022-08-11T15:47:01;48.80;18.50
1135;DHT22;556;53.550;10.048;2022-08-11T15:49:32;48.60;18.70
1135;DHT22;556;53.550;10.048;2022-08-11T15:52:02;48.30;18.20
1135;DHT22;556;53.550;10.048;2022-08-11T15:54:32;48.30;18.60
1135;DHT22;556;53.550;10.048;2022-08-11T15:57:04;48.30;18.60
1135;DHT22;556;53.550;10.048;2022-08-11T15:59:33;48.40;18.60
1135;DHT22;556;53.550;10.048;2022-08-11T16:02:21;48.40;18.60
1135;DHT22;556;53.550;10.048;2022-08-11T16:05:13;48.70;18.60
1135;DHT22;556;53.550;10.048;2022-08-11T16:07:43;48.90;18.50
1135;DHT22;556;53.550;10.048;2022-08-11T16:10:15;49.10;18.00
1135;DHT22;556;53.550;10.048;2022-08-11T16:12:50;49.20;18.40
1135;DHT22;556;53.550;10.048;2022-08-11T16:15:46;49.20;17.90
1135;DHT22;556;53.550;10.048;2022-08-11T16:18:35;49.10;18.30
1135;DHT22;556;53.550;10.048;2022-08-11T16:21:11;49.00;18.40
1135;DHT22;556;53.550;10.048;2022-08-11T16:23:42;49.00;18.40
1135;DHT22;556;53.550;10.048;2022-08-11T16:26:10;48.80;18.90
1135;DHT22;556;53.550;10.048;2022-08-11T16:28:41;48.60;18.50
1135;DHT22;556;53.550;10.048;2022-08-11T16:31:11;48.40;18.50
1135;DHT22;556;53.550;10.048;2022-08-11T16:33:39;48.40;18.50
1135;DHT22;556;53.550;10.048;2022-08-11T16:36:08;48.30;18.60
1135;DHT22;556;53.550;10.048;2022-08-11T16:38:55;48.30;18.60
1135;DHT22;556;53.550;10.048;2022-08-11T16:41:26;48.10;18.60
1135;DHT22;556;53.550;10.048;2022-08-11T16:44:16;48.10;18.60
1135;DHT22;556;53.550;10.048;2022-08-11T16:47:01;48.10;18.60
1135;DHT22;556;53.550;10.048;2022-08-11T16:49:32;47.90;18.70
1135;DHT22;556;53.550;10.048;2022-08-11T16:52:01;47.80;18.70
1135;DHT22;556;53.550;10.048;2022-08-11T16:54:32;47.80;18.60
1135;DHT22;556;53.550;10.048;2022-08-11T16:57:02;47.60;18.60
1135;DHT22;556;53.550;10.048;2022-08-11T16:59:46;47.30;18.60
1135;DHT22;556;53.550;10.048;2022-08-11T17:02:16;47.10;18.80
1135;DHT22;556;53.550;10.048;2022-08-11T17:05:09;46.90;18.80
1135;DHT22;556;53.550;10.048;2022-08-11T17:07:57;46.80;18.80
1135;DHT22;556;53.550;10.048;2022-08-11T17:10:48;46.60;18.80
1135;DHT22;556;53.550;10.048;2022-08-11T17:13:39;46.40;18.90
1135;DHT22;556;53.550;10.048;2022-08-11T17:16:11;46.20;19.00
1135;DHT22;556;53.550;10.048;2022-08-11T17:18:43;46.10;19.10
1135;DHT22;556;53.550;10.048;2022-08-11T17:21:17;45.90;19.10
1135;DHT22;556;53.550;10.048;2022-08-11T17:23:51;45.80;18.70
1135;DHT22;556;53.550;10.048;2022-08-11T17:26:26;45.60;19.10
1135;DHT22;556;53.550;10.048;2022-08-11T17:29:17;45.40;18.70
1135;DHT22;556;53.550;10.048;2022-08-11T17:31:48;45.30;19.20
1135;DHT22;556;53.550;10.048;2022-08-11T17:34:33;45.30;19.30
1135;DHT22;556;53.550;10.048;2022-08-11T17:37:19;45.10;19.30
1135;DHT22;556;53.550;10.048;2022-08-11T17:39:48;44.90;19.40
1135;DHT22;556;53.550;10.048;2022-08-11T17:42:16;44.70;19.40
1135;DHT22;556;53.550;10.048;2022-08-11T17:45:03;44.50;19.50
1135;DHT22;556;53.550;10.048;2022-08-11T17:47:50;44.20;19.20
1135;DHT22;556;53.550;10.048;2022-08-11T17:50:35;44.10;19.70
1135;DHT22;556;53.550;10.048;2022-08-11T17:53:06;43.90;19.70
1135;DHT22;556;53.550;10.048;2022-08-11T17:55:53;43.70;19.70
1135;DHT22;556;53.550;10.048;2022-08-11T17:58:55;43.50;19.90
1135;DHT22;556;53.550;10.048;2022-08-11T18:01:40;43.10;19.90
1135;DHT22;556;53.550;10.048;2022-08-11T18:04:14;42.80;20.00
1135;DHT22;556;53.550;10.048;2022-08-11T18:06:41;42.60;20.10
1135;DHT22;556;53.550;10.048;2022-08-11T18:09:12;42.40;20.20
1135;DHT22;556;53.550;10.048;2022-08-11T18:11:59;42.20;20.30
1135;DHT22;556;53.550;10.048;2022-08-11T18:14:47;41.90;20.30
1135;DHT22;556;53.550;10.048;2022-08-11T18:17:33;41.50;20.40
1135;DHT22;556;53.550;10.048;2022-08-11T18:20:22;41.10;20.60
1135;DHT22;556;53.550;10.048;2022-08-11T18:23:10;40.80;20.70
1135;DHT22;556;53.550;10.048;2022-08-11T18:26:00;40.50;20.80